Time;durP1;ratioP1;P1;durP2;ratioP2;P2;SDS_P1;SDS_P2;PMS_P1;PMS_P2;Temp;Humidity;BMP_temperature;BMP_pressure;BME280_temperature;BME280_humidity;BME280_pressure;Samples;Min_cycle;Max_cycle;Signal;HPM_P1;HPM_P2
2023/07/03 00:01:28;;;;;;;25.67;18.02;;;17.90;99.90;;;;;;4838787;29;20046;-77
2023/07/03 00:03:57;;;;;;;26.17;18.15;;;17.80;99.90;;;;;;4838785;29;20054;-77
2023/07/03 00:06:26;;;;;;;27.27;17.90;;;17.80;99.90;;;;;;4838241;29;20133;-77
2023/07/03 00:08:54;;;;;;;26.30;18.27;;;17.80;99.90;;;;;;4837984;29;20053;-77
2023/07/03 00:11:21;;;;;;;25.70;18.50;;;17.80;99.90;;;;;;4837794;29;20156;-77
2023/07/03 00:13:49;;;;;;;22.35;16.35;;;17.90;99.90;;;;;;4839595;29;20042;-77
2023/07/03 00:16:16;;;;;;;25.30;16.67;;;18.00;99.90;;;;;;4838998;29;20042;-77
2023/07/03 00:18:43;;;;;;;28.63;15.45;;;18.00;99.90;;;;;;4838275;29;20054;-77
2023/07/03 00:21:11;;;;;;;23.02;15.88;;;18.00;99.90;;;;;;4837794;29;20053;-77
2023/07/03 00:23:40;;;;;;;21.52;17.55;;;17.90;99.90;;;;;;4838542;29;20061;-77
2023/07/03 00:26:07;;;;;;;26.02;17.15;;;17.90;99.90;;;;;;4838015;29;20054;-77
2023/07/03 00:28:34;;;;;;;27.92;17.00;;;17.90;99.90;;;;;;4842112;29;20038;-77
2023/07/03 00:31:02;;;;;;;23.20;17.50;;;17.80;99.90;;;;;;4855619;29;20073;-76
2023/07/03 00:33:29;;;;;;;29.00;17.15;;;17.80;99.90;;;;;;4856173;29;20051;-77
2023/07/03 00:35:56;;;;;;;33.38;16.70;;;17.80;99.90;;;;;;4856001;29;20061;-78
2023/07/03 00:38:24;;;;;;;26.20;16.73;;;17.80;99.90;;;;;;4839686;29;20051;-77
2023/07/03 00:40:53;;;;;;;21.63;16.65;;;17.80;99.90;;;;;;4839427;29;20634;-77
2023/07/03 00:43:22;;;;;;;27.42;16.40;;;17.80;99.90;;;;;;4833013;29;20521;-77
2023/07/03 00:45:50;;;;;;;24.33;16.58;;;17.80;99.90;;;;;;4819459;29;20111;-77
2023/07/03 00:48:17;;;;;;;23.83;17.33;;;17.80;99.90;;;;;;4818203;29;20057;-76
2023/07/03 00:50:45;;;;;;;20.27;15.57;;;17.80;99.90;;;;;;4819459;29;20042;-77
2023/07/03 00:53:12;;;;;;;22.35;15.90;;;17.70;99.90;;;;;;4820923;29;20045;-77
2023/07/03 00:55:40;;;;;;;17.55;14.95;;;17.70;99.90;;;;;;4821723;29;20089;-77
2023/07/03 00:58:09;;;;;;;19.83;15.75;;;17.80;99.90;;;;;;4837966;29;20050;-76
2023/07/03 01:00:43;;;;;;;24.45;16.13;;;17.80;99.90;;;;;;4837597;29;20049;-77
2023/07/03 01:03:15;;;;;;;23.98;16.65;;;17.80;99.90;;;;;;4821146;29;20046;-77
2023/07/03 01:05:49;;;;;;;22.65;16.17;;;17.80;99.90;;;;;;4837625;29;20236;-77
2023/07/03 01:08:16;;;;;;;22.05;15.23;;;17.90;99.90;;;;;;4837581;29;20125;-77
2023/07/03 01:10:45;;;;;;;22.77;17.30;;;17.90;99.90;;;;;;4836959;29;20050;-78
2023/07/03 01:13:17;;;;;;;28.90;20.02;;;17.90;99.90;;;;;;4821414;29;20454;-77
2023/07/03 01:15:46;;;;;;;24.85;16.38;;;17.90;99.90;;;;;;4838207;29;20050;-76
2023/07/03 01:18:15;;;;;;;26.27;19.95;;;17.90;99.90;;;;;;4841009;29;20042;-77
2023/07/03 01:20:48;;;;;;;23.88;15.77;;;17.90;99.90;;;;;;4823987;29;20041;-76
2023/07/03 01:23:22;;;;;;;23.45;16.58;;;17.90;99.90;;;;;;4840777;29;20042;-77
2023/07/03 01:25:52;;;;;;;22.48;17.20;;;17.90;99.90;;;;;;4824086;29;20050;-76
2023/07/03 01:28:22;;;;;;;29.13;17.73;;;17.80;99.90;;;;;;4826496;29;20106;-77
2023/07/03 01:30:52;;;;;;;25.52;18.58;;;17.80;99.90;;;;;;4858832;29;20132;-78
2023/07/03 01:33:26;;;;;;;24.63;17.20;;;17.80;99.90;;;;;;4859214;29;20045;-77
2023/07/03 01:35:55;;;;;;;22.88;17.15;;;17.70;99.90;;;;;;4857349;29;20566;-77
2023/07/03 01:38:24;;;;;;;17.90;15.88;;;17.70;99.90;;;;;;4858642;29;20045;-77
2023/07/03 01:40:58;;;;;;;19.83;15.75;;;17.70;99.90;;;;;;4858743;29;20037;-77
2023/07/03 01:43:26;;;;;;;20.23;15.70;;;17.70;99.90;;;;;;4854885;29;20034;-77
2023/07/03 01:45:54;;;;;;;22.15;16.30;;;17.70;99.90;;;;;;4839225;29;20129;-77
2023/07/03 01:48:21;;;;;;;23.40;16.70;;;17.60;99.90;;;;;;4840295;29;20045;-77
2023/07/03 01:50:49;;;;;;;26.05;16.92;;;17.60;99.90;;;;;;4839642;29;20050;-77
2023/07/03 01:53:23;;;;;;;24.67;16.38;;;17.60;99.90;;;;;;4840336;29;20121;-77
2023/07/03 01:55:55;;;;;;;22.90;16.85;;;17.70;99.90;;;;;;4840587;29;20102;-77
2023/07/03 01:58:30;;;;;;;25.90;16.05;;;17.70;99.90;;;;;;4841086;29;20050;-76
2023/07/03 02:01:02;;;;;;;23.98;17.02;;;17.70;99.90;;;;;;4838244;29;20046;-77
2023/07/03 02:03:33;;;;;;;23.25;16.92;;;17.60;99.90;;;;;;4838079;29;20062;-76
2023/07/03 02:06:06;;;;;;;20.55;15.20;;;17.60;99.90;;;;;;4841881;29;20042;-76
2023/07/03 02:08:33;;;;;;;24.83;17.70;;;17.60;99.90;;;;;;4840077;29;20030;-75
2023/07/03 02:11:01;;;;;;;27.08;17.08;;;17.60;99.90;;;;;;4839567;29;20046;-76
2023/07/03 02:13:30;;;;;;;22.15;18.67;;;17.60;99.90;;;;;;4824128;29;20130;-77
2023/07/03 02:16:00;;;;;;;21.75;16.98;;;17.60;99.90;;;;;;4823825;29;20384;-77
2023/07/03 02:18:27;;;;;;;22.27;17.25;;;17.50;99.90;;;;;;4823712;29;20056;-76
2023/07/03 02:20:55;;;;;;;22.95;16.95;;;17.50;99.90;;;;;;4823183;29;20519;-76
2023/07/03 02:23:22;;;;;;;23.40;16.85;;;17.50;99.90;;;;;;4823288;29;20042;-77
2023/07/03 02:25:49;;;;;;;23.55;17.52;;;17.40;99.90;;;;;;4822969;29;20061;-76
2023/07/03 02:28:17;;;;;;;30.83;19.00;;;17.40;99.90;;;;;;4840320;29;20050;-76
2023/07/03 02:30:46;;;;;;;29.15;17.10;;;17.40;99.90;;;;;;4841594;29;20418;-76
2023/07/03 02:33:13;;;;;;;20.77;16.60;;;17.40;99.90;;;;;;4842277;29;20497;-76
2023/07/03 02:35:41;;;;;;;19.73;15.68;;;17.30;99.90;;;;;;4844096;29;20058;-75
2023/07/03 02:38:09;;;;;;;19.45;15.98;;;17.30;99.90;;;;;;4843435;29;20129;-77
2023/07/03 02:40:36;;;;;;;23.15;15.20;;;17.20;99.90;;;;;;4859672;29;20041;-77
2023/07/03 02:43:04;;;;;;;19.83;15.10;;;17.20;99.90;;;;;;4840225;29;20049;-77
2023/07/03 02:45:36;;;;;;;18.55;15.00;;;17.10;99.90;;;;;;4839625;29;20528;-78
2023/07/03 02:48:05;;;;;;;22.90;16.52;;;17.00;99.90;;;;;;4823628;29;20422;-78
2023/07/03 02:50:33;;;;;;;17.67;15.57;;;17.00;99.90;;;;;;4822809;29;20038;-78
2023/07/03 02:53:00;;;;;;;17.83;14.35;;;17.10;99.90;;;;;;4823355;29;20074;-74
2023/07/03 02:55:28;;;;;;;18.77;15.38;;;17.00;99.90;;;;;;4823537;29;20065;-77
2023/07/03 02:57:57;;;;;;;20.58;16.10;;;17.10;99.90;;;;;;4822973;29;20571;-77
2023/07/03 03:00:27;;;;;;;23.10;16.05;;;17.10;99.90;;;;;;4822680;29;20042;-78
2023/07/03 03:02:55;;;;;;;27.13;16.27;;;17.20;99.90;;;;;;4822857;29;20384;-76
2023/07/03 03:05:24;;;;;;;20.58;15.95;;;17.30;99.90;;;;;;4822855;29;20049;-77
2023/07/03 03:07:52;;;;;;;19.30;14.82;;;17.30;99.90;;;;;;4838957;29;20046;-77
2023/07/03 03:10:19;;;;;;;30.33;16.50;;;17.30;99.90;;;;;;4837782;29;20058;-75
2023/07/03 03:12:47;;;;;;;40.38;18.90;;;17.20;99.90;;;;;;4822358;29;20057;-76
2023/07/03 03:15:17;;;;;;;25.50;16.77;;;17.20;99.90;;;;;;4822460;29;20046;-76
2023/07/03 03:17:44;;;;;;;23.70;18.85;;;17.10;99.90;;;;;;4822249;29;20065;-77
2023/07/03 03:20:13;;;;;;;22.92;18.38;;;17.20;99.90;;;;;;4821800;29;20049;-77
2023/07/03 03:22:42;;;;;;;21.42;17.17;;;17.20;99.90;;;;;;4837777;29;20054;-76
2023/07/03 03:25:10;;;;;;;22.85;16.05;;;17.10;99.90;;;;;;4822231;29;20050;-76
2023/07/03 03:27:38;;;;;;;22.10;17.42;;;17.20;99.90;;;;;;4838183;29;20430;-76
2023/07/03 03:30:06;;;;;;;22.80;16.38;;;17.20;99.90;;;;;;4836617;29;20053;-76
2023/07/03 03:32:37;;;;;;;19.48;16.65;;;17.20;99.90;;;;;;4840244;29;20063;-75
2023/07/03 03:35:06;;;;;;;23.80;17.70;;;17.20;99.90;;;;;;4839914;29;20045;-77
2023/07/03 03:37:33;;;;;;;23.73;16.15;;;17.20;99.90;;;;;;4840978;29;20053;-76
2023/07/03 03:40:07;;;;;;;25.40;16.55;;;17.20;99.90;;;;;;4839415;29;20530;-75
2023/07/03 03:42:36;;;;;;;22.98;15.88;;;17.20;99.90;;;;;;4840414;29;20105;-77
2023/07/03 03:45:04;;;;;;;25.23;17.48;;;17.20;99.90;;;;;;4840958;29;20084;-76
2023/07/03 03:47:31;;;;;;;24.38;17.92;;;17.20;99.90;;;;;;4838669;29;20415;-76
2023/07/03 03:50:01;;;;;;;28.48;17.75;;;17.20;99.90;;;;;;4822743;29;20065;-76
2023/07/03 03:52:31;;;;;;;21.80;17.55;;;17.20;99.90;;;;;;4824091;29;20046;-78
2023/07/03 03:54:58;;;;;;;25.08;17.08;;;17.20;99.90;;;;;;4823074;29;20054;-77
2023/07/03 03:57:27;;;;;;;23.13;18.48;;;17.20;99.90;;;;;;4822454;29;20133;-77
2023/07/03 03:59:55;;;;;;;22.23;15.95;;;17.20;99.90;;;;;;4821305;29;20125;-77
2023/07/03 04:02:22;;;;;;;19.80;16.38;;;17.20;99.90;;;;;;4821931;29;20077;-77
2023/07/03 04:04:49;;;;;;;23.30;15.73;;;17.30;99.90;;;;;;4821554;29;20091;-78
2023/07/03 04:07:17;;;;;;;18.77;15.57;;;17.40;99.90;;;;;;4838761;29;20050;-76
2023/07/03 04:09:44;;;;;;;20.67;15.98;;;17.50;99.90;;;;;;4838071;29;20041;-77
2023/07/03 04:12:12;;;;;;;54.83;49.45;;;17.60;99.90;;;;;;4838036;29;20054;-77
2023/07/03 04:14:42;;;;;;;17.08;14.52;;;17.80;99.90;;;;;;4837995;29;20038;-76
2023/07/03 04:17:10;;;;;;;13.35;12.05;;;18.10;99.90;;;;;;4837947;29;20056;-77
2023/07/03 04:19:37;;;;;;;13.55;11.82;;;18.20;99.90;;;;;;4838410;29;20050;-77
2023/07/03 04:22:05;;;;;;;13.02;11.35;;;18.40;99.90;;;;;;4837568;29;20495;-76
2023/07/03 04:24:34;;;;;;;12.45;11.18;;;18.60;99.90;;;;;;4821357;29;20054;-77
2023/07/03 04:27:03;;;;;;;14.52;11.07;;;18.90;99.90;;;;;;4837828;29;20046;-76
2023/07/03 04:29:30;;;;;;;13.30;10.48;;;19.00;99.90;;;;;;4848345;29;20041;-78
2023/07/03 04:31:59;;;;;;;15.32;11.32;;;19.10;99.90;;;;;;4855855;29;20046;-77
2023/07/03 04:34:26;;;;;;;14.95;11.68;;;18.90;99.90;;;;;;4840532;29;20045;-78
2023/07/03 04:36:54;;;;;;;15.45;12.88;;;18.90;99.90;;;;;;4857124;29;20061;-77
2023/07/03 04:39:23;;;;;;;15.63;12.75;;;19.10;99.90;;;;;;4855475;29;20050;-76
2023/07/03 04:41:50;;;;;;;17.15;13.32;;;19.20;99.90;;;;;;4837547;29;20132;-77
2023/07/03 04:44:18;;;;;;;19.55;14.65;;;19.30;99.90;;;;;;4818115;29;20046;-78
2023/07/03 04:46:45;;;;;;;18.15;14.20;;;19.20;99.90;;;;;;4819331;29;20050;-77
2023/07/03 04:49:15;;;;;;;18.73;14.40;;;19.30;99.90;;;;;;4820055;29;20046;-78
2023/07/03 04:51:42;;;;;;;19.77;14.77;;;19.60;99.90;;;;;;4821134;29;20047;-77
2023/07/03 04:54:11;;;;;;;27.17;16.98;;;19.90;99.90;;;;;;4823077;29;20054;-77
2023/07/03 04:56:38;;;;;;;22.27;16.83;;;20.30;99.90;;;;;;4839378;29;20450;-76
2023/07/03 04:59:05;;;;;;;25.73;17.70;;;20.60;99.90;;;;;;4841018;29;20311;-77
2023/07/03 05:01:33;;;;;;;33.00;19.35;;;20.60;99.90;;;;;;4840900;29;20042;-78
2023/07/03 05:04:00;;;;;;;26.95;19.17;;;20.90;99.90;;;;;;4840922;29;20114;-77
2023/07/03 05:06:30;;;;;;;29.45;18.80;;;21.20;99.90;;;;;;4840879;29;20050;-76
2023/07/03 05:08:57;;;;;;;32.05;21.48;;;21.70;99.90;;;;;;4841143;29;20095;-76
2023/07/03 05:11:24;;;;;;;33.47;20.27;;;22.80;99.90;;;;;;4823983;29;20054;-77
2023/07/03 05:13:52;;;;;;;26.80;18.63;;;24.10;99.90;;;;;;4841450;29;20051;-78
2023/07/03 05:16:19;;;;;;;27.63;20.92;;;25.60;99.90;;;;;;4825165;29;20407;-77
2023/07/03 05:18:47;;;;;;;20.80;16.75;;;26.50;99.90;;;;;;4840962;29;20050;-77
2023/07/03 05:21:14;;;;;;;20.92;15.32;;;26.30;99.90;;;;;;4840434;29;20050;-77
2023/07/03 05:23:43;;;;;;;26.15;21.77;;;25.80;99.90;;;;;;4840838;29;20068;-76
2023/07/03 05:26:10;;;;;;;21.60;16.40;;;26.60;99.90;;;;;;4851191;24;20061;-83
2023/07/03 05:28:38;;;;;;;17.70;13.90;;;27.90;99.90;;;;;;4848070;29;20053;-85
2023/07/03 05:31:11;;;;;;;21.50;15.63;;;30.00;99.90;;;;;;4849734;29;20037;-84
2023/07/03 05:33:41;;;;;;;19.38;15.55;;;31.90;99.90;;;;;;4853182;29;20060;-85
2023/07/03 05:36:09;;;;;;;18.40;15.48;;;33.50;99.90;;;;;;4861569;29;20046;-86
2023/07/03 05:38:36;;;;;;;18.65;14.70;;;34.90;99.90;;;;;;4843364;29;20487;-85
2023/07/03 05:41:05;;;;;;;18.90;14.65;;;35.80;99.90;;;;;;4825956;29;20601;-85
2023/07/03 05:43:32;;;;;;;24.40;17.35;;;36.40;99.90;;;;;;4827337;29;20140;-83
2023/07/03 05:46:00;;;;;;;18.73;16.35;;;35.60;99.90;;;;;;4848404;29;20174;-86
2023/07/03 05:48:27;;;;;;;17.02;14.90;;;35.00;99.90;;;;;;4830316;29;20297;-86
2023/07/03 05:50:54;;;;;;;20.77;16.40;;;35.20;99.90;;;;;;4844440;29;20054;-85
2023/07/03 05:53:23;;;;;;;17.58;15.13;;;34.90;99.90;;;;;;4845923;29;20053;-84
2023/07/03 05:55:59;;;;;;;18.45;15.60;;;34.70;99.90;;;;;;4832872;29;20471;-84
2023/07/03 05:58:29;;;;;;;17.50;15.10;;;34.60;99.90;;;;;;4849303;29;20133;-84
2023/07/03 06:00:58;;;;;;;16.50;14.70;;;35.10;99.90;;;;;;4846531;29;20113;-84
2023/07/03 06:03:26;;;;;;;16.20;14.40;;;35.70;99.90;;;;;;4846303;29;20062;-84
2023/07/03 06:05:53;;;;;;;15.35;13.82;;;36.20;99.90;;;;;;4844286;29;20080;-86
2023/07/03 06:08:21;;;;;;;19.67;14.80;;;36.30;99.90;;;;;;4826623;29;20045;-84
2023/07/03 06:10:48;;;;;;;17.48;15.65;;;35.20;99.90;;;;;;4842088;29;20050;-85
2023/07/03 06:13:16;;;;;;;21.52;16.83;;;33.00;99.90;;;;;;4844155;29;20105;-84
2023/07/03 06:15:45;;;;;;;18.63;16.00;;;30.60;99.90;;;;;;4845623;29;20061;-83
2023/07/03 06:18:12;;;;;;;17.42;14.38;;;30.70;99.90;;;;;;4848613;29;20134;-85
2023/07/03 06:20:39;;;;;;;15.45;13.85;;;30.00;99.90;;;;;;4827566;29;20046;-84
2023/07/03 06:23:07;;;;;;;21.02;16.08;;;29.60;99.90;;;;;;4845949;29;20113;-84
2023/07/03 06:25:34;;;;;;;22.70;18.70;;;29.50;99.90;;;;;;4844824;29;20046;-83
2023/07/03 06:28:02;;;;;;;25.50;18.05;;;29.20;99.90;;;;;;4825315;29;20101;-80
2023/07/03 06:30:30;;;;;;;17.52;13.73;;;29.10;99.90;;;;;;4810756;29;20050;-82
2023/07/03 06:32:59;;;;;;;78.75;26.65;;;29.00;99.90;;;;;;4828073;29;20050;-83
2023/07/03 06:35:26;;;;;;;14.45;12.63;;;28.70;99.90;;;;;;4814112;29;20053;-84
2023/07/03 06:37:55;;;;;;;15.38;12.57;;;28.00;99.90;;;;;;4846126;29;20566;-82
2023/07/03 06:40:23;;;;;;;17.70;14.68;;;27.80;99.90;;;;;;4847679;29;20179;-83
2023/07/03 06:42:54;;;;;;;15.77;12.38;;;27.90;99.90;;;;;;4846282;29;20137;-85
2023/07/03 06:45:23;;;;;;;14.35;12.32;;;27.90;99.90;;;;;;4829042;29;20042;-86
2023/07/03 06:47:53;;;;;;;15.98;13.13;;;28.60;99.90;;;;;;4847519;29;20038;-83
2023/07/03 06:50:25;;;;;;;11.73;10.27;;;28.90;99.90;;;;;;4831240;29;20073;-85
2023/07/03 06:52:52;;;;;;;17.75;9.63;;;28.90;99.90;;;;;;4847308;29;20034;-83
2023/07/03 06:55:20;;;;;;;13.70;8.50;;;28.40;99.90;;;;;;4851533;29;20061;-84
2023/07/03 06:57:52;;;;;;;11.60;9.77;;;28.60;99.90;;;;;;4815329;29;20114;-83
2023/07/03 07:00:20;;;;;;;12.30;8.80;;;29.00;99.90;;;;;;4841900;29;20046;-83
2023/07/03 07:02:47;;;;;;;12.00;9.05;;;29.20;99.90;;;;;;4842143;29;20050;-85
2023/07/03 07:05:15;;;;;;;14.07;8.27;;;29.00;99.90;;;;;;4842060;29;20046;-84
2023/07/03 07:07:45;;;;;;;10.27;8.05;;;28.80;99.90;;;;;;4842703;29;20125;-84
2023/07/03 07:10:13;;;;;;;12.57;7.68;;;28.80;99.90;;;;;;4831624;29;20050;-85
2023/07/03 07:12:43;;;;;;;9.88;6.90;;;28.60;99.90;;;;;;4826564;29;20109;-85
2023/07/03 07:15:11;;;;;;;10.75;7.28;;;28.40;99.90;;;;;;4825011;29;20046;-83
2023/07/03 07:17:39;;;;;;;10.50;6.13;;;28.00;99.90;;;;;;4840811;29;20046;-83
2023/07/03 07:20:08;;;;;;;9.77;6.40;;;27.90;99.90;;;;;;4840088;29;20046;-82
2023/07/03 07:22:36;;;;;;;9.95;6.45;;;28.00;99.90;;;;;;4841447;29;20514;-83
2023/07/03 07:25:07;;;;;;;7.70;6.03;;;28.00;99.90;;;;;;4841961;29;20141;-83
2023/07/03 07:27:35;;;;;;;8.48;5.97;;;28.00;99.90;;;;;;4842381;29;20050;-83
2023/07/03 07:30:03;;;;;;;7.68;5.82;;;27.60;99.90;;;;;;4857716;29;20045;-82
2023/07/03 07:32:30;;;;;;;5.85;5.18;;;27.70;99.90;;;;;;4866278;29;20049;-83
2023/07/03 07:34:57;;;;;;;8.90;5.35;;;27.50;99.90;;;;;;4855540;29;20046;-81
2023/07/03 07:37:26;;;;;;;9.60;5.30;;;27.40;99.90;;;;;;4844666;29;20050;-83
2023/07/03 07:39:53;;;;;;;8.80;5.50;;;27.40;99.90;;;;;;4842035;29;20069;-82
2023/07/03 07:42:22;;;;;;;5.53;4.35;;;27.00;99.90;;;;;;4841782;29;20061;-84
2023/07/03 07:44:51;;;;;;;5.53;4.18;;;27.20;99.90;;;;;;4841137;29;20237;-84
2023/07/03 07:47:18;;;;;;;9.45;4.10;;;27.50;99.90;;;;;;4842258;29;20423;-83
2023/07/03 07:49:45;;;;;;;6.60;4.15;;;27.50;99.90;;;;;;4845441;29;20465;-82
2023/07/03 07:52:13;;;;;;;7.60;4.97;;;27.50;99.90;;;;;;4845316;29;20046;-83
2023/07/03 07:54:41;;;;;;;5.65;3.90;;;27.60;99.90;;;;;;4827556;29;20046;-83
2023/07/03 07:57:08;;;;;;;6.20;4.50;;;27.80;99.90;;;;;;4840800;29;20057;-83
2023/07/03 07:59:38;;;;;;;7.45;4.78;;;28.00;99.90;;;;;;4825390;29;20046;-83
2023/07/03 08:02:06;;;;;;;7.30;3.78;;;28.00;99.90;;;;;;4842406;29;20050;-83
2023/07/03 08:04:34;;;;;;;6.80;3.65;;;27.90;99.90;;;;;;4840829;29;20046;-83
2023/07/03 08:07:01;;;;;;;7.93;3.63;;;28.00;99.90;;;;;;4839298;29;20061;-83
2023/07/03 08:09:29;;;;;;;7.15;4.00;;;28.00;99.90;;;;;;4841094;29;20046;-82
2023/07/03 08:11:56;;;;;;;5.63;3.58;;;28.10;99.90;;;;;;4842577;29;20249;-83
2023/07/03 08:14:24;;;;;;;6.15;3.63;;;28.00;99.90;;;;;;4842625;29;20099;-83
2023/07/03 08:16:53;;;;;;;5.75;3.92;;;27.80;99.90;;;;;;4841986;29;20046;-84
2023/07/03 08:19:20;;;;;;;6.45;3.35;;;27.70;99.90;;;;;;4841979;29;20066;-83
2023/07/03 08:21:48;;;;;;;7.28;3.75;;;27.70;99.90;;;;;;4840159;29;20046;-84
2023/07/03 08:24:15;;;;;;;5.13;3.80;;;27.60;99.90;;;;;;4839993;29;20038;-83
2023/07/03 08:26:49;;;;;;;8.45;4.45;;;27.80;99.90;;;;;;4845160;29;20054;-84
2023/07/03 08:29:16;;;;;;;7.03;3.90;;;28.00;99.90;;;;;;4852745;29;20049;-84
2023/07/03 08:31:43;;;;;;;7.28;3.08;;;28.10;99.90;;;;;;4862664;29;20421;-83
2023/07/03 08:34:12;;;;;;;6.80;3.33;;;28.10;99.90;;;;;;4863549;29;20509;-86
2023/07/03 08:36:40;;;;;;;8.45;4.13;;;28.10;99.90;;;;;;4861216;29;20049;-83
2023/07/03 08:39:08;;;;;;;7.53;3.50;;;28.20;99.90;;;;;;4862903;29;20379;-83
2023/07/03 08:41:46;;;;;;;8.88;5.25;;;28.20;99.90;;;;;;4844967;29;20046;-84
2023/07/03 08:44:14;;;;;;;5.10;4.00;;;28.30;99.90;;;;;;4835244;29;20102;-84
2023/07/03 08:46:43;;;;;;;5.80;3.83;;;28.40;99.90;;;;;;4826221;29;20482;-83
2023/07/03 08:49:14;;;;;;;6.28;4.25;;;28.40;99.90;;;;;;4842898;29;20069;-84
2023/07/03 08:51:42;;;;;;;5.55;3.53;;;28.60;99.90;;;;;;4844775;29;20058;-84
2023/07/03 08:54:16;;;;;;;6.20;4.07;;;28.60;99.90;;;;;;4815183;29;20095;-82
2023/07/03 08:56:44;;;;;;;5.07;3.65;;;28.40;99.90;;;;;;4824718;29;20043;-82
2023/07/03 08:59:17;;;;;;;8.50;4.65;;;28.20;99.90;;;;;;4824052;29;20054;-84
2023/07/03 09:01:51;;;;;;;6.63;5.10;;;28.50;99.90;;;;;;4830617;29;20060;-81
2023/07/03 09:04:31;;;;;;;6.70;4.38;;;28.50;99.90;;;;;;4864896;29;20124;-82
2023/07/03 09:07:02;;;;;;;5.78;4.47;;;28.70;99.90;;;;;;4863440;29;20510;-81
2023/07/03 09:09:34;;;;;;;6.20;4.47;;;28.70;99.90;;;;;;4846838;29;20553;-82
2023/07/03 09:12:06;;;;;;;6.50;4.68;;;28.50;99.90;;;;;;4844526;29;20340;-82
2023/07/03 09:14:38;;;;;;;6.00;4.60;;;28.40;99.90;;;;;;4825170;29;20042;-82
2023/07/03 09:17:09;;;;;;;6.47;4.20;;;28.50;99.90;;;;;;4825152;29;20502;-84
2023/07/03 09:19:43;;;;;;;5.45;4.07;;;28.50;99.90;;;;;;4842773;29;20038;-83
2023/07/03 09:22:22;;;;;;;5.40;3.75;;;28.70;99.90;;;;;;4825512;29;20054;-82
2023/07/03 09:24:54;;;;;;;7.80;4.95;;;28.60;99.90;;;;;;4842308;29;20065;-83
2023/07/03 09:27:24;;;;;;;8.98;7.35;;;28.70;99.90;;;;;;4853917;29;20068;-83
2023/07/03 09:29:52;;;;;;;4.97;4.32;;;28.80;99.90;;;;;;4855873;29;20041;-80
2023/07/03 09:32:25;;;;;;;6.35;4.00;;;29.00;99.90;;;;;;4861268;29;20045;-83
2023/07/03 09:35:06;;;;;;;6.53;3.42;;;28.90;99.90;;;;;;4862403;29;20052;-83
2023/07/03 09:37:36;;;;;;;6.50;3.90;;;28.80;99.90;;;;;;4846583;29;20049;-81
2023/07/03 09:40:08;;;;;;;6.22;3.67;;;28.70;99.90;;;;;;4826158;29;20050;-85
2023/07/03 09:42:37;;;;;;;4.85;3.83;;;28.40;99.90;;;;;;4843229;29;20046;-83
2023/07/03 09:45:12;;;;;;;5.13;3.72;;;28.60;99.90;;;;;;4825715;29;20423;-84
2023/07/03 09:47:42;;;;;;;6.53;4.10;;;28.50;99.90;;;;;;4825117;29;20052;-83
2023/07/03 09:50:11;;;;;;;8.27;3.47;;;28.60;99.90;;;;;;4824148;29;20047;-81
2023/07/03 09:52:45;;;;;;;4.50;3.88;;;28.90;99.90;;;;;;4824886;29;20058;-83
2023/07/03 09:55:13;;;;;;;5.07;3.58;;;28.70;99.90;;;;;;4825300;29;20503;-83
2023/07/03 09:57:41;;;;;;;7.03;4.05;;;28.70;99.90;;;;;;4824417;29;20429;-82
2023/07/03 10:00:14;;;;;;;5.03;4.03;;;28.80;99.90;;;;;;4807637;29;20122;-83
2023/07/03 10:02:42;;;;;;;5.13;3.78;;;28.90;99.90;;;;;;4838098;29;20038;-83
2023/07/03 10:05:15;;;;;;;5.07;3.65;;;28.80;99.90;;;;;;4842752;29;20065;-82
2023/07/03 10:07:45;;;;;;;5.32;3.80;;;28.60;99.90;;;;;;4827034;29;20168;-83
2023/07/03 10:10:16;;;;;;;6.28;3.80;;;28.70;99.90;;;;;;4844060;29;20074;-81
2023/07/03 10:12:49;;;;;;;4.60;3.92;;;28.70;99.90;;;;;;4826238;29;20067;-83
2023/07/03 10:15:21;;;;;;;4.65;3.50;;;28.90;99.90;;;;;;4843451;29;20559;-82
2023/07/03 10:17:54;;;;;;;8.20;6.07;;;28.70;99.90;;;;;;4825147;29;20091;-82
2023/07/03 10:20:27;;;;;;;8.40;7.28;;;28.80;99.90;;;;;;4841837;29;20049;-84
2023/07/03 10:22:56;;;;;;;5.70;3.72;;;29.00;99.90;;;;;;4841690;29;20049;-83
2023/07/03 10:25:29;;;;;;;5.25;3.50;;;29.00;99.90;;;;;;4827742;29;20046;-84
2023/07/03 10:27:59;;;;;;;4.47;3.47;;;28.80;99.90;;;;;;4842675;29;20049;-86
2023/07/03 10:30:32;;;;;;;7.43;3.95;;;28.70;99.90;;;;;;4861272;29;20047;-82
2023/07/03 10:33:04;;;;;;;5.68;4.30;;;28.40;99.90;;;;;;4852852;29;20049;-83
2023/07/03 10:35:34;;;;;;;6.78;4.95;;;28.50;99.90;;;;;;4843596;29;20042;-84
2023/07/03 10:38:15;;;;;;;6.13;4.38;;;28.50;99.90;;;;;;4844551;29;20058;-83
2023/07/03 10:40:52;;;;;;;4.43;3.42;;;28.80;99.90;;;;;;4842229;29;20038;-83
2023/07/03 10:43:21;;;;;;;18.73;6.72;;;29.00;99.90;;;;;;4840430;29;20491;-84
2023/07/03 10:45:49;;;;;;;6.93;4.30;;;29.10;99.90;;;;;;4824554;29;20050;-82
2023/07/03 10:48:19;;;;;;;9.45;4.53;;;29.30;99.90;;;;;;4823879;29;20153;-84
2023/07/03 10:51:00;;;;;;;5.47;4.68;;;29.40;99.90;;;;;;4807281;29;20054;-83
2023/07/03 10:53:35;;;;;;;5.47;3.70;;;29.50;99.90;;;;;;4807055;29;20077;-84
2023/07/03 10:56:08;;;;;;;6.15;4.43;;;29.50;99.90;;;;;;4832056;29;20403;-84
2023/07/03 10:58:43;;;;;;;7.68;6.82;;;29.50;99.90;;;;;;4809208;29;20487;-83
2023/07/03 11:01:20;;;;;;;6.95;4.65;;;29.40;99.90;;;;;;4822686;29;20103;-82
2023/07/03 11:03:55;;;;;;;9.88;8.65;;;29.30;99.90;;;;;;4807457;29;20043;-83
2023/07/03 11:06:31;;;;;;;6.38;4.85;;;29.40;99.90;;;;;;4808900;29;20099;-83
2023/07/03 11:09:03;;;;;;;5.40;4.45;;;29.40;99.90;;;;;;4826471;29;20046;-84
2023/07/03 11:11:43;;;;;;;5.00;4.18;;;29.40;99.90;;;;;;4831585;29;20388;-85
2023/07/03 11:14:18;;;;;;;8.85;3.83;;;29.40;99.90;;;;;;4830666;29;20050;-83
2023/07/03 11:16:57;;;;;;;5.20;3.85;;;29.00;99.90;;;;;;4825597;29;20061;-82
2023/07/03 11:19:37;;;;;;;5.55;4.78;;;28.90;99.90;;;;;;4824564;29;20038;-83
2023/07/03 11:22:14;;;;;;;5.10;4.43;;;28.90;99.90;;;;;;4823791;29;20325;-83
2023/07/03 11:24:52;;;;;;;6.50;4.20;;;29.00;99.90;;;;;;4823237;29;20388;-81
2023/07/03 11:27:30;;;;;;;5.28;3.70;;;29.10;99.90;;;;;;4831721;24;20038;-77
2023/07/03 11:29:58;;;;;;;4.55;3.53;;;29.20;99.90;;;;;;4820540;29;20105;-78
2023/07/03 11:32:26;;;;;;;6.88;4.18;;;29.20;99.90;;;;;;4820444;29;20046;-77
2023/07/03 11:34:53;;;;;;;5.47;3.92;;;29.20;99.90;;;;;;4803771;29;20050;-79
2023/07/03 11:37:45;;;;;;;6.10;3.38;;;29.30;99.90;;;;;;4820964;29;20065;-76
2023/07/03 11:40:35;;;;;;;6.22;3.63;;;29.20;99.90;;;;;;4816869;29;20064;-78
2023/07/03 11:43:21;;;;;;;7.75;6.80;;;29.10;99.90;;;;;;4819413;29;20111;-78
2023/07/03 11:46:07;;;;;;;4.88;3.70;;;29.30;99.90;;;;;;4802181;29;20054;-76
2023/07/03 11:48:44;;;;;;;5.90;3.72;;;29.40;99.90;;;;;;4802549;29;20568;-76
2023/07/03 11:51:14;;;;;;;5.32;3.72;;;29.60;99.90;;;;;;4804653;29;20175;-78
2023/07/03 11:53:45;;;;;;;5.65;3.80;;;29.50;99.90;;;;;;4806964;29;20062;-79
2023/07/03 11:57:03;;;;;;;6.55;3.85;;;29.60;99.90;;;;;;4805119;29;20603;-77
2023/07/03 11:59:34;;;;;;;7.00;5.45;;;29.70;99.90;;;;;;4802225;29;20472;-79
2023/07/03 12:02:44;;;;;;;6.78;4.10;;;29.70;99.90;;;;;;4810427;29;20396;-78
2023/07/03 12:05:32;;;;;;;6.97;3.42;;;29.90;99.90;;;;;;4819882;29;20734;-77
2023/07/03 12:08:01;;;;;;;4.85;3.50;;;30.10;99.90;;;;;;4818861;29;20046;-78
2023/07/03 12:10:57;;;;;;;3.97;3.58;;;30.30;99.90;;;;;;4820199;29;20039;-78
2023/07/03 12:13:51;;;;;;;5.65;3.50;;;30.10;99.90;;;;;;4820510;29;20058;-76
2023/07/03 12:16:21;;;;;;;4.22;3.13;;;29.90;99.90;;;;;;4815205;29;20042;-79
2023/07/03 12:19:01;;;;;;;5.88;3.40;;;29.50;99.90;;;;;;4820000;29;20038;-77
2023/07/03 12:21:42;;;;;;;4.05;2.80;;;29.40;99.90;;;;;;4819524;29;20046;-77
2023/07/03 12:24:25;;;;;;;4.82;3.25;;;29.40;99.90;;;;;;4819926;29;20407;-77
2023/07/03 12:26:57;;;;;;;4.85;3.88;;;29.40;99.90;;;;;;4801275;29;20039;-77
2023/07/03 12:29:24;;;;;;;7.60;3.70;;;29.40;99.90;;;;;;4821529;29;20066;-76
2023/07/03 12:31:57;;;;;;;5.28;3.22;;;29.70;99.90;;;;;;4837451;29;20067;-76
2023/07/03 12:34:26;;;;;;;9.10;5.40;;;29.80;99.90;;;;;;4838348;29;20305;-78
2023/07/03 12:37:01;;;;;;;8.07;4.18;;;30.00;99.90;;;;;;4837230;29;20073;-78
2023/07/03 12:39:28;;;;;;;5.18;3.58;;;30.40;99.90;;;;;;4838004;29;20042;-76
2023/07/03 12:42:06;;;;;;;5.65;4.53;;;30.70;99.90;;;;;;4837442;29;20133;-77
2023/07/03 12:44:33;;;;;;;3.95;2.95;;;31.00;99.90;;;;;;4824993;29;20092;-77
2023/07/03 12:47:10;;;;;;;5.15;3.90;;;31.00;99.90;;;;;;4819529;29;20070;-77
2023/07/03 12:49:55;;;;;;;8.07;3.60;;;30.90;99.90;;;;;;4803824;29;20050;-77
2023/07/03 12:52:24;;;;;;;6.18;3.33;;;30.80;99.90;;;;;;4820117;29;20157;-77